Time;durP1;ratioP1;P1;durP2;ratioP2;P2;SDS_P1;SDS_P2;PMS_P1;PMS_P2;Temp;Humidity;BMP_temperature;BMP_pressure;BME280_temperature;BME280_humidity;BME280_pressure;Samples;Min_cycle;Max_cycle;Signal;HPM_P1;HPM_P2
2022/06/07 00:01:24;;;;;;;20.30;18.90;;;11.40;99.90;;;;;;5058573;28;20575;-65
2022/06/07 00:03:51;;;;;;;18.97;17.87;;;11.40;99.90;;;;;;5068777;28;20490;-66
2022/06/07 00:06:18;;;;;;;20.80;19.07;;;11.30;99.90;;;;;;5075596;28;20580;-65
2022/06/07 00:08:46;;;;;;;19.97;18.17;;;11.30;99.90;;;;;;5067499;28;20889;-66
2022/06/07 00:11:13;;;;;;;20.13;18.87;;;11.30;99.90;;;;;;5073077;28;20469;-67
2022/06/07 00:13:40;;;;;;;22.50;20.30;;;11.20;99.90;;;;;;5060087;28;20482;-66
2022/06/07 00:16:07;;;;;;;19.50;18.07;;;11.20;99.90;;;;;;5068484;28;20475;-65
2022/06/07 00:18:36;;;;;;;19.53;18.00;;;11.20;99.90;;;;;;5063976;28;20777;-65
2022/06/07 00:21:03;;;;;;;19.43;18.07;;;11.10;99.90;;;;;;5073753;28;20538;-65
2022/06/07 00:23:34;;;;;;;19.50;17.90;;;11.10;99.90;;;;;;5070608;28;20469;-64
2022/06/07 00:26:01;;;;;;;19.80;18.03;;;11.00;99.90;;;;;;5065967;28;21014;-66
2022/06/07 00:28:29;;;;;;;18.93;17.60;;;10.90;99.90;;;;;;5074878;28;20464;-64
2022/06/07 00:30:56;;;;;;;20.70;18.60;;;10.80;99.90;;;;;;5063905;28;20470;-68
2022/06/07 00:33:25;;;;;;;19.30;17.80;;;10.70;99.90;;;;;;5073644;28;20494;-67
2022/06/07 00:35:54;;;;;;;19.90;18.30;;;10.60;99.90;;;;;;5068959;28;20474;-67
2022/06/07 00:38:21;;;;;;;20.20;18.80;;;10.60;99.90;;;;;;5075856;28;20458;-67
2022/06/07 00:40:47;;;;;;;19.53;18.17;;;10.50;99.90;;;;;;5069061;28;20462;-67
2022/06/07 00:43:15;;;;;;;18.27;16.97;;;10.70;99.90;;;;;;5070508;28;20473;-68
2022/06/07 00:45:42;;;;;;;18.83;17.43;;;11.00;99.90;;;;;;5069134;28;21097;-67
2022/06/07 00:48:10;;;;;;;17.80;16.10;;;11.30;99.90;;;;;;5069512;28;20555;-67
2022/06/07 00:50:44;;;;;;;16.70;15.50;;;11.50;99.90;;;;;;5075041;28;20463;-68
2022/06/07 00:53:23;;;;;;;17.27;15.90;;;11.70;99.90;;;;;;5069119;28;20502;-69
2022/06/07 00:55:50;;;;;;;17.70;16.37;;;11.90;99.90;;;;;;5072571;28;20466;-67
2022/06/07 00:58:17;;;;;;;17.33;16.00;;;11.90;99.90;;;;;;5073391;28;20459;-68
2022/06/07 01:00:44;;;;;;;15.93;14.83;;;11.90;99.90;;;;;;5069734;28;20480;-67
2022/06/07 01:03:12;;;;;;;17.73;16.30;;;11.90;99.90;;;;;;5067016;28;20466;-69
2022/06/07 01:05:40;;;;;;;17.57;16.33;;;11.90;99.90;;;;;;5072889;28;21093;-67
2022/06/07 01:10:55;;;;;;;17.00;15.70;;;12.10;99.90;;;;;;5068806;28;20519;-68
2022/06/07 01:13:25;;;;;;;17.27;16.00;;;12.10;99.90;;;;;;5075374;28;20609;-68
2022/06/07 01:15:58;;;;;;;18.53;17.03;;;12.20;99.90;;;;;;5064308;28;20863;-67
2022/06/07 01:18:25;;;;;;;18.40;17.10;;;12.10;99.90;;;;;;5063606;28;20469;-67
2022/06/07 01:21:14;;;;;;;17.23;16.03;;;12.10;99.90;;;;;;5075892;28;20473;-67
2022/06/07 01:23:42;;;;;;;16.83;15.67;;;12.10;99.90;;;;;;5074116;28;20556;-68
2022/06/07 01:26:09;;;;;;;17.23;16.13;;;12.10;99.90;;;;;;5078536;28;20462;-66
2022/06/07 01:28:36;;;;;;;17.67;16.30;;;12.10;99.90;;;;;;5068058;28;20822;-67
2022/06/07 01:31:04;;;;;;;17.87;16.20;;;12.20;99.90;;;;;;5075698;28;20860;-69
2022/06/07 01:33:31;;;;;;;17.13;15.80;;;12.20;99.90;;;;;;5068468;28;20490;-68
2022/06/07 01:36:03;;;;;;;18.60;16.80;;;12.10;99.90;;;;;;5069561;28;20470;-68
2022/06/07 01:38:33;;;;;;;17.77;16.23;;;12.10;99.90;;;;;;5071554;28;20853;-69
2022/06/07 01:43:45;;;;;;;16.73;15.53;;;12.10;99.90;;;;;;5064660;28;20465;-69
2022/06/07 01:46:13;;;;;;;15.97;14.80;;;12.10;99.90;;;;;;5067808;28;20456;-70
2022/06/07 01:48:39;;;;;;;16.53;15.23;;;12.10;99.90;;;;;;5073252;28;20623;-67
2022/06/07 01:51:09;;;;;;;17.07;15.90;;;12.20;99.90;;;;;;5079814;28;20458;-69
2022/06/07 01:53:37;;;;;;;17.17;15.77;;;12.10;99.90;;;;;;5069322;28;20496;-71
2022/06/07 01:56:05;;;;;;;16.40;15.10;;;12.10;99.90;;;;;;5069430;28;20471;-68
2022/06/07 01:58:32;;;;;;;16.30;15.10;;;12.10;99.90;;;;;;5076776;28;20458;-69
2022/06/07 02:00:59;;;;;;;15.63;14.53;;;12.10;99.90;;;;;;5077321;28;20482;-69
2022/06/07 02:03:26;;;;;;;16.20;15.10;;;12.10;99.90;;;;;;5071651;28;20469;-69
2022/06/07 02:05:57;;;;;;;15.40;14.30;;;12.00;99.90;;;;;;5075231;28;20958;-71
2022/06/07 02:08:25;;;;;;;15.73;14.30;;;12.00;99.90;;;;;;5065076;28;20453;-69
2022/06/07 02:10:53;;;;;;;15.17;13.80;;;12.00;99.90;;;;;;5071590;28;20469;-69
2022/06/07 02:13:20;;;;;;;15.10;13.80;;;12.00;99.90;;;;;;5069344;28;20790;-69
2022/06/07 02:15:47;;;;;;;15.70;14.20;;;12.00;99.90;;;;;;5061488;28;20486;-70
2022/06/07 02:18:15;;;;;;;14.40;13.40;;;11.90;99.90;;;;;;5078762;28;20451;-71
2022/06/07 02:20:43;;;;;;;15.37;14.17;;;11.90;99.90;;;;;;5070349;28;20979;-69
2022/06/07 02:23:09;;;;;;;14.37;13.27;;;11.90;99.90;;;;;;5074623;28;20979;-69
2022/06/07 02:25:42;;;;;;;14.83;13.50;;;11.90;99.90;;;;;;5074555;28;20466;-68
2022/06/07 02:28:11;;;;;;;15.17;14.17;;;11.80;99.90;;;;;;5078953;28;20501;-71
2022/06/07 02:30:54;;;;;;;14.13;13.23;;;11.80;99.90;;;;;;5074615;28;20550;-70
2022/06/07 02:33:22;;;;;;;15.13;13.90;;;11.80;99.90;;;;;;5074227;28;20521;-67
2022/06/07 02:35:50;;;;;;;14.70;13.30;;;11.70;99.90;;;;;;5070296;28;20471;-66
2022/06/07 02:38:17;;;;;;;14.37;13.47;;;11.70;99.90;;;;;;5065589;28;20501;-67
2022/06/07 02:40:46;;;;;;;15.17;13.97;;;11.60;99.90;;;;;;5070960;28;20477;-67
2022/06/07 02:43:14;;;;;;;14.67;13.50;;;11.70;99.90;;;;;;5072473;28;20474;-67
2022/06/07 02:45:41;;;;;;;15.33;14.10;;;11.70;99.90;;;;;;5070857;28;20470;-67
2022/06/07 02:48:09;;;;;;;14.93;13.90;;;11.70;99.90;;;;;;5070019;28;20497;-66
2022/06/07 02:50:37;;;;;;;14.60;13.50;;;11.70;99.90;;;;;;5065602;28;20809;-69
2022/06/07 02:53:05;;;;;;;14.53;13.53;;;11.70;99.90;;;;;;5073837;28;20932;-68
2022/06/07 02:55:33;;;;;;;13.80;12.90;;;11.60;99.90;;;;;;5061954;28;20472;-67
2022/06/07 02:58:00;;;;;;;14.70;13.57;;;11.60;99.90;;;;;;5070868;28;20563;-67
2022/06/07 03:00:28;;;;;;;13.43;12.63;;;11.50;99.90;;;;;;5075319;28;20467;-67
2022/06/07 03:02:56;;;;;;;15.17;14.07;;;11.50;99.90;;;;;;5071347;28;20469;-69
2022/06/07 03:05:23;;;;;;;14.53;13.33;;;11.50;99.90;;;;;;5065280;28;20489;-68
2022/06/07 03:07:51;;;;;;;14.97;13.87;;;11.40;99.90;;;;;;5068356;28;20462;-71
2022/06/07 03:10:18;;;;;;;13.50;12.43;;;11.40;99.90;;;;;;5073676;28;20475;-69
2022/06/07 03:12:45;;;;;;;14.53;13.53;;;11.50;99.90;;;;;;5061294;28;20723;-70
2022/06/07 03:15:14;;;;;;;13.70;12.80;;;11.50;99.90;;;;;;5071445;28;20843;-69
2022/06/07 03:17:42;;;;;;;14.53;13.67;;;11.40;99.90;;;;;;5062755;28;20458;-66
2022/06/07 03:20:10;;;;;;;13.87;12.97;;;11.40;99.90;;;;;;5066583;28;20471;-69
2022/06/07 03:22:38;;;;;;;14.60;13.20;;;11.40;99.90;;;;;;5068143;28;20471;-67
2022/06/07 03:25:07;;;;;;;14.80;13.57;;;11.40;99.90;;;;;;5068089;28;20581;-67
2022/06/07 03:27:35;;;;;;;13.30;12.30;;;11.30;99.90;;;;;;5075120;28;21083;-66
2022/06/07 03:30:02;;;;;;;14.20;13.00;;;11.30;99.90;;;;;;5069102;28;20498;-67
2022/06/07 03:32:29;;;;;;;12.93;11.93;;;11.40;99.90;;;;;;5059914;28;20469;-67
2022/06/07 03:34:57;;;;;;;13.37;12.50;;;11.50;99.90;;;;;;5070345;28;20467;-66
2022/06/07 03:37:24;;;;;;;15.33;13.80;;;11.50;99.90;;;;;;5062245;28;20470;-69
2022/06/07 03:39:51;;;;;;;12.47;11.67;;;11.50;99.90;;;;;;5063449;28;20459;-66
2022/06/07 03:42:19;;;;;;;14.03;12.63;;;11.50;99.90;;;;;;5066348;28;20624;-67
2022/06/07 03:44:48;;;;;;;13.67;12.60;;;11.50;99.90;;;;;;5071554;28;20458;-67
2022/06/07 03:47:15;;;;;;;12.87;12.00;;;11.50;99.90;;;;;;5075045;28;20507;-67
2022/06/07 03:49:42;;;;;;;14.57;13.10;;;11.40;99.90;;;;;;5071392;28;20469;-66
2022/06/07 03:52:11;;;;;;;13.27;12.20;;;11.50;99.90;;;;;;5072626;28;20885;-66
2022/06/07 03:54:38;;;;;;;12.30;11.60;;;11.60;99.90;;;;;;5067183;28;20490;-67
2022/06/07 03:57:06;;;;;;;12.20;11.27;;;11.50;99.90;;;;;;5073480;28;20518;-66
2022/06/07 03:59:33;;;;;;;11.97;11.23;;;11.60;99.90;;;;;;5063565;28;20482;-66
2022/06/07 04:01:59;;;;;;;13.10;11.90;;;11.70;99.90;;;;;;5051511;28;21236;-69
2022/06/07 04:04:27;;;;;;;12.90;11.80;;;11.60;99.90;;;;;;5050359;28;20593;-67
2022/06/07 04:09:49;;;;;;;12.10;11.27;;;11.70;99.90;;;;;;4979234;28;20471;-67
2022/06/07 04:12:17;;;;;;;12.10;11.40;;;11.90;99.90;;;;;;5038725;28;20551;-69
2022/06/07 04:14:46;;;;;;;13.67;12.77;;;11.90;99.90;;;;;;5037519;28;20502;-66
2022/06/07 04:17:14;;;;;;;11.87;11.10;;;11.90;99.90;;;;;;5037711;28;22209;-68
2022/06/07 04:19:42;;;;;;;12.70;11.77;;;11.90;99.90;;;;;;5038211;28;20462;-69
2022/06/07 04:22:11;;;;;;;12.83;11.83;;;11.90;99.90;;;;;;5038035;28;20593;-66
2022/06/07 04:24:38;;;;;;;12.93;11.70;;;12.00;99.90;;;;;;5064214;28;20824;-67
2022/06/07 04:27:06;;;;;;;12.50;11.50;;;12.00;99.90;;;;;;5062345;28;20455;-67
2022/06/07 04:29:33;;;;;;;11.90;10.80;;;12.10;99.90;;;;;;5038822;28;20459;-67
2022/06/07 04:32:00;;;;;;;13.87;12.13;;;12.10;99.90;;;;;;5039271;28;21031;-68
2022/06/07 04:37:08;;;;;;;12.10;11.10;;;12.20;99.90;;;;;;5037056;28;20530;-66
2022/06/07 04:39:34;;;;;;;11.17;10.27;;;12.30;99.90;;;;;;5037282;28;20515;-67
2022/06/07 04:42:01;;;;;;;11.27;10.20;;;12.40;99.90;;;;;;5037235;28;20467;-67
2022/06/07 04:44:30;;;;;;;11.20;10.40;;;12.40;99.90;;;;;;5037210;28;20463;-68
2022/06/07 04:46:57;;;;;;;10.83;10.03;;;12.40;99.90;;;;;;5037733;28;20497;-68
2022/06/07 04:49:26;;;;;;;10.80;10.00;;;12.50;99.90;;;;;;5037994;28;20459;-67
2022/06/07 04:51:53;;;;;;;10.43;9.70;;;12.60;99.90;;;;;;5037422;28;20466;-67
2022/06/07 04:54:19;;;;;;;10.87;9.80;;;12.70;99.90;;;;;;5037769;28;20486;-67
2022/06/07 04:56:46;;;;;;;11.00;10.20;;;12.80;99.90;;;;;;5037599;28;21017;-69
2022/06/07 04:59:14;;;;;;;10.33;9.67;;;12.90;99.90;;;;;;5037710;28;20468;-70
2022/06/07 05:01:44;;;;;;;10.93;10.13;;;12.80;99.90;;;;;;5040087;28;21261;-68
2022/06/07 05:04:12;;;;;;;11.90;10.57;;;12.80;99.90;;;;;;5030386;28;20493;-69
2022/06/07 05:06:41;;;;;;;10.53;9.67;;;12.80;99.90;;;;;;5019930;28;20787;-67
2022/06/07 05:09:13;;;;;;;11.00;10.10;;;12.90;99.90;;;;;;5018715;28;20455;-69
2022/06/07 05:11:40;;;;;;;11.90;11.00;;;12.80;99.90;;;;;;5018689;28;20966;-67
2022/06/07 05:14:08;;;;;;;11.07;10.10;;;13.00;99.90;;;;;;5017227;28;20610;-68
2022/06/07 05:16:38;;;;;;;10.80;10.10;;;13.10;99.90;;;;;;5019647;28;20443;-66
2022/06/07 05:19:07;;;;;;;10.83;10.13;;;13.30;99.90;;;;;;5017972;28;20497;-67
2022/06/07 05:21:34;;;;;;;11.40;10.37;;;13.70;99.90;;;;;;5021493;28;20463;-66
2022/06/07 05:24:01;;;;;;;10.30;9.50;;;13.90;99.90;;;;;;5034009;28;20470;-67
2022/06/07 05:26:33;;;;;;;11.80;10.67;;;14.10;99.90;;;;;;5048085;28;20483;-69
2022/06/07 05:29:00;;;;;;;11.70;10.67;;;14.30;99.90;;;;;;5048143;28;20962;-66
2022/06/07 05:31:27;;;;;;;12.33;11.50;;;14.40;99.90;;;;;;5040529;28;20467;-68
2022/06/07 05:33:55;;;;;;;11.53;10.80;;;14.60;99.90;;;;;;5021220;28;20503;-67
2022/06/07 05:36:23;;;;;;;11.47;10.67;;;14.70;99.90;;;;;;5022324;28;20572;-67
2022/06/07 05:38:50;;;;;;;12.07;11.27;;;14.70;99.90;;;;;;5021236;28;20868;-68
2022/06/07 05:41:20;;;;;;;12.23;11.53;;;14.70;99.90;;;;;;5019913;28;20468;-68
2022/06/07 05:43:47;;;;;;;14.23;11.50;;;14.80;99.90;;;;;;5020231;28;20475;-67
2022/06/07 05:46:14;;;;;;;14.47;13.43;;;14.90;99.90;;;;;;5021411;28;20447;-67
2022/06/07 05:48:41;;;;;;;14.77;13.77;;;15.20;99.90;;;;;;5021835;28;20463;-67
2022/06/07 05:51:08;;;;;;;15.03;13.63;;;15.40;99.90;;;;;;5020691;28;20838;-67
2022/06/07 05:53:36;;;;;;;13.97;13.17;;;15.70;99.90;;;;;;5018834;28;20503;-67
2022/06/07 05:56:07;;;;;;;14.30;13.40;;;15.90;99.90;;;;;;5020654;28;20829;-66
2022/06/07 05:58:34;;;;;;;13.40;12.47;;;16.10;99.90;;;;;;5022224;28;20828;-68
2022/06/07 06:01:00;;;;;;;14.63;13.70;;;16.30;99.90;;;;;;5017235;28;20555;-68
2022/06/07 06:03:27;;;;;;;16.60;15.50;;;16.30;99.90;;;;;;5016202;28;20475;-66
2022/06/07 06:05:55;;;;;;;15.57;14.33;;;16.40;99.90;;;;;;5039560;28;21180;-66
2022/06/07 06:11:10;;;;;;;13.57;12.87;;;16.70;99.90;;;;;;5038879;28;20607;-68
2022/06/07 06:13:37;;;;;;;14.70;13.60;;;16.90;99.90;;;;;;5038264;28;20832;-66
2022/06/07 06:16:05;;;;;;;15.53;14.57;;;16.90;99.90;;;;;;5038508;28;20493;-68
2022/06/07 06:18:32;;;;;;;15.33;14.53;;;16.90;99.90;;;;;;5039445;28;20984;-66
2022/06/07 06:20:59;;;;;;;15.60;14.50;;;17.30;99.90;;;;;;5039318;28;20993;-66
2022/06/07 06:23:26;;;;;;;14.60;13.70;;;17.60;99.90;;;;;;5037516;28;20462;-66
2022/06/07 06:25:53;;;;;;;16.00;15.00;;;17.80;99.90;;;;;;5036484;28;20462;-65
2022/06/07 06:28:22;;;;;;;14.53;13.83;;;18.00;99.90;;;;;;5038490;28;20471;-66
2022/06/07 06:30:49;;;;;;;14.93;13.90;;;18.20;99.90;;;;;;5039474;28;20467;-68
2022/06/07 06:33:17;;;;;;;14.33;13.40;;;18.00;99.90;;;;;;5038586;28;21306;-67
2022/06/07 06:35:48;;;;;;;15.10;13.97;;;17.90;99.90;;;;;;5038717;28;20485;-67
2022/06/07 06:38:15;;;;;;;15.80;14.60;;;18.20;99.90;;;;;;5038980;28;20811;-66
2022/06/07 06:40:43;;;;;;;16.17;14.60;;;18.00;99.90;;;;;;5038712;28;20458;-68
2022/06/07 06:43:11;;;;;;;15.27;14.27;;;17.60;99.90;;;;;;5038710;28;20475;-66
2022/06/07 06:45:40;;;;;;;14.97;13.87;;;17.60;99.90;;;;;;5039648;28;20988;-66
2022/06/07 06:48:08;;;;;;;15.60;14.50;;;17.80;99.90;;;;;;5038640;28;20517;-66
2022/06/07 06:50:36;;;;;;;14.73;13.90;;;17.80;99.90;;;;;;5039318;28;20498;-68
2022/06/07 06:53:03;;;;;;;15.67;14.20;;;18.00;99.90;;;;;;5037518;28;21074;-67
2022/06/07 06:55:30;;;;;;;14.70;13.80;;;18.20;99.90;;;;;;5037896;28;21119;-67
2022/06/07 06:57:57;;;;;;;14.80;13.60;;;18.40;99.90;;;;;;5035718;28;20623;-66
2022/06/07 07:00:25;;;;;;;14.10;13.30;;;18.70;99.90;;;;;;5033070;28;20459;-68
2022/06/07 07:02:54;;;;;;;15.20;14.07;;;18.50;99.90;;;;;;5034929;28;20467;-68
2022/06/07 07:05:23;;;;;;;15.90;14.70;;;18.40;99.90;;;;;;5037388;28;20490;-66
2022/06/07 07:07:50;;;;;;;14.90;14.10;;;17.90;99.90;;;;;;5038685;28;20454;-67
2022/06/07 07:10:16;;;;;;;15.37;14.47;;;17.80;99.90;;;;;;5038629;28;20465;-68
2022/06/07 07:12:43;;;;;;;14.40;13.60;;;17.90;99.90;;;;;;5033445;28;20458;-68
2022/06/07 07:15:13;;;;;;;15.27;13.87;;;17.80;99.90;;;;;;5036001;28;20748;-66
2022/06/07 07:17:40;;;;;;;15.90;14.67;;;18.00;99.90;;;;;;5037439;28;20617;-65
2022/06/07 07:20:09;;;;;;;14.67;13.80;;;18.00;99.90;;;;;;5039276;28;20766;-66
2022/06/07 07:22:36;;;;;;;14.53;13.73;;;18.00;99.90;;;;;;5037930;28;20450;-65
2022/06/07 07:25:05;;;;;;;15.50;14.60;;;18.00;99.90;;;;;;5038371;28;21524;-65
2022/06/07 07:27:32;;;;;;;15.40;14.20;;;18.00;99.90;;;;;;5038241;28;21152;-67
2022/06/07 07:29:59;;;;;;;15.67;14.03;;;18.30;99.90;;;;;;5036244;28;20523;-67
2022/06/07 07:32:26;;;;;;;15.43;14.33;;;18.30;99.90;;;;;;5057675;28;20906;-66
2022/06/07 07:34:54;;;;;;;15.80;14.50;;;18.50;99.90;;;;;;5065332;28;20487;-65
2022/06/07 07:37:22;;;;;;;14.90;13.90;;;18.70;99.90;;;;;;5067666;28;20541;-65
2022/06/07 07:39:49;;;;;;;15.20;14.03;;;19.00;99.90;;;;;;5039526;28;20559;-65
2022/06/07 07:42:16;;;;;;;15.00;13.97;;;19.20;99.90;;;;;;5037300;28;21087;-65
2022/06/07 07:44:43;;;;;;;16.30;15.20;;;19.30;99.90;;;;;;5065438;28;20467;-66
2022/06/07 07:47:10;;;;;;;16.23;15.30;;;19.60;99.90;;;;;;5060391;28;20467;-65
2022/06/07 07:49:37;;;;;;;15.77;14.70;;;19.90;99.90;;;;;;5067755;28;20472;-66
2022/06/07 07:52:04;;;;;;;15.57;14.57;;;19.80;99.90;;;;;;5052240;28;20456;-66
2022/06/07 07:54:32;;;;;;;15.73;14.60;;;19.60;99.90;;;;;;5036106;28;22869;-66
2022/06/07 07:56:59;;;;;;;15.43;14.07;;;20.10;99.90;;;;;;5037227;28;20463;-65
2022/06/07 07:59:26;;;;;;;15.23;14.27;;;20.20;99.90;;;;;;5036772;28;20774;-65
2022/06/07 08:01:53;;;;;;;14.53;13.63;;;20.00;99.90;;;;;;5032866;28;20605;-64
2022/06/07 08:04:20;;;;;;;15.43;14.43;;;19.60;99.90;;;;;;5036750;28;21292;-64
2022/06/07 08:06:47;;;;;;;15.33;14.20;;;19.80;99.90;;;;;;5035853;28;20580;-64
2022/06/07 08:09:15;;;;;;;15.03;14.30;;;19.80;99.90;;;;;;5036547;28;20455;-66
2022/06/07 08:11:44;;;;;;;14.97;14.07;;;20.00;99.90;;;;;;5035716;28;21007;-65
2022/06/07 08:14:14;;;;;;;14.67;14.07;;;20.20;99.90;;;;;;5037139;28;21123;-67
2022/06/07 08:16:42;;;;;;;15.23;14.03;;;20.90;99.90;;;;;;5036239;28;21262;-66
2022/06/07 08:19:09;;;;;;;16.07;14.70;;;20.70;99.90;;;;;;5035749;28;20462;-65
2022/06/07 08:21:37;;;;;;;15.47;14.60;;;20.20;99.90;;;;;;5036185;28;20845;-65
2022/06/07 08:24:05;;;;;;;15.30;14.47;;;21.20;99.90;;;;;;5036519;28;20482;-65
2022/06/07 08:26:32;;;;;;;15.37;14.30;;;21.20;99.90;;;;;;5035931;28;20767;-66
2022/06/07 08:29:01;;;;;;;15.10;14.40;;;21.00;99.90;;;;;;5033816;28;21023;-66
2022/06/07 08:31:32;;;;;;;14.70;14.03;;;21.20;99.90;;;;;;5035756;28;20488;-66
2022/06/07 08:39:28;;;;;;;14.80;13.90;;;22.10;99.90;;;;;;5035379;28;20594;-66
2022/06/07 08:41:58;;;;;;;15.70;14.63;;;22.50;99.90;;;;;;5035635;28;20571;-65
2022/06/07 08:44:31;;;;;;;14.83;14.10;;;21.80;99.90;;;;;;5034700;28;20479;-66
2022/06/07 08:47:01;;;;;;;14.50;13.80;;;21.60;99.90;;;;;;5038956;28;20463;-66
2022/06/07 08:49:28;;;;;;;15.00;14.00;;;22.30;99.90;;;;;;5059760;28;20831;-64
2022/06/07 08:52:03;;;;;;;14.80;14.00;;;23.50;99.90;;;;;;5038168;28;20688;-66
2022/06/07 08:54:35;;;;;;;15.23;14.43;;;23.70;99.90;;;;;;5037567;28;20493;-66
2022/06/07 08:57:07;;;;;;;16.03;14.70;;;23.10;99.90;;;;;;5037649;28;20890;-68
2022/06/07 08:59:35;;;;;;;14.97;13.97;;;22.30;99.90;;;;;;5037789;28;21224;-70
2022/06/07 09:02:12;;;;;;;15.10;14.20;;;22.30;99.90;;;;;;5039293;28;21141;-69
2022/06/07 09:04:40;;;;;;;15.27;14.07;;;22.40;99.90;;;;;;5028108;28;20487;-67
2022/06/07 09:07:14;;;;;;;15.00;14.00;;;22.20;99.90;;;;;;5018699;28;21021;-68
2022/06/07 09:12:32;;;;;;;15.00;14.10;;;22.50;99.90;;;;;;5019128;28;20529;-69
2022/06/07 09:15:11;;;;;;;15.07;14.20;;;22.20;99.90;;;;;;5019637;28;20499;-70
2022/06/07 09:17:41;;;;;;;15.37;14.53;;;22.60;99.90;;;;;;5019113;28;21131;-70
2022/06/07 09:20:16;;;;;;;15.40;14.50;;;23.60;99.90;;;;;;5018423;28;20981;-67
2022/06/07 09:22:50;;;;;;;15.10;14.23;;;23.70;99.90;;;;;;5017213;28;20470;-65
2022/06/07 09:25:21;;;;;;;14.73;13.93;;;23.50;99.90;;;;;;5018695;28;20470;-65
2022/06/07 09:27:48;;;;;;;14.70;14.00;;;23.00;99.90;;;;;;5018306;28;20467;-66
2022/06/07 09:30:24;;;;;;;14.83;14.03;;;23.30;99.90;;;;;;5017016;28;20459;-67
2022/06/07 09:32:51;;;;;;;16.10;15.00;;;23.20;99.90;;;;;;5018505;28;20506;-66
2022/06/07 09:35:22;;;;;;;15.23;14.53;;;23.60;99.90;;;;;;5019116;28;20492;-65
2022/06/07 09:37:52;;;;;;;15.50;14.60;;;23.90;99.90;;;;;;5019059;28;20837;-67
2022/06/07 09:40:26;;;;;;;16.13;15.23;;;23.40;99.70;;;;;;5016507;28;20472;-65
2022/06/07 09:42:58;;;;;;;15.47;14.40;;;23.10;99.90;;;;;;5017413;28;20452;-67
2022/06/07 09:45:31;;;;;;;16.40;15.50;;;23.50;99.90;;;;;;5015648;28;21049;-68
2022/06/07 09:47:58;;;;;;;15.30;14.60;;;23.80;99.90;;;;;;5016053;28;20541;-67
2022/06/07 09:50:34;;;;;;;15.20;14.27;;;24.10;99.40;;;;;;5016141;28;20831;-66
2022/06/07 09:53:09;;;;;;;15.60;14.80;;;24.00;99.90;;;;;;5016419;28;20462;-66
2022/06/07 09:55:41;;;;;;;14.97;14.17;;;24.80;99.90;;;;;;5015586;28;21025;-68
2022/06/07 09:58:30;;;;;;;15.90;15.00;;;24.50;99.30;;;;;;5018230;28;20517;-68
2022/06/07 10:01:05;;;;;;;15.90;15.10;;;24.00;98.80;;;;;;5026516;28;21167;-69
2022/06/07 10:03:39;;;;;;;15.33;14.33;;;24.00;99.10;;;;;;5017006;28;21451;-68
2022/06/07 10:06:19;;;;;;;15.17;14.37;;;23.70;99.10;;;;;;5016267;28;20472;-69
2022/06/07 10:09:14;;;;;;;15.10;14.37;;;24.20;99.50;;;;;;5017898;28;20951;-68
2022/06/07 10:11:50;;;;;;;16.30;15.30;;;24.50;98.20;;;;;;5017179;28;21106;-66
2022/06/07 10:14:33;;;;;;;16.30;15.17;;;24.40;99.20;;;;;;5016238;28;20510;-66
2022/06/07 10:17:35;;;;;;;14.90;14.20;;;24.60;98.00;;;;;;5014738;28;20471;-68
2022/06/07 10:20:10;;;;;;;15.57;14.63;;;25.00;99.50;;;;;;5014247;28;20454;-66
2022/06/07 10:22:54;;;;;;;15.47;14.67;;;24.80;98.30;;;;;;5015525;28;20468;-68
2022/06/07 10:25:29;;;;;;;15.80;14.90;;;24.70;97.90;;;;;;5015288;28;20454;-66
2022/06/07 10:28:03;;;;;;;15.30;14.60;;;24.80;98.80;;;;;;5018131;28;20557;-67
2022/06/07 10:30:38;;;;;;;14.93;14.13;;;24.80;97.70;;;;;;5017972;28;20470;-67
2022/06/07 10:33:33;;;;;;;15.00;14.10;;;24.70;97.50;;;;;;5017517;28;20456;-68
2022/06/07 10:36:06;;;;;;;14.70;13.80;;;24.60;97.10;;;;;;5017936;28;20486;-68
2022/06/07 10:38:52;;;;;;;15.17;13.87;;;24.40;97.80;;;;;;5017658;28;20478;-67
2022/06/07 10:41:26;;;;;;;14.50;13.70;;;24.80;97.50;;;;;;5016841;28;20468;-67
2022/06/07 10:44:00;;;;;;;15.27;14.37;;;25.50;97.20;;;;;;5017769;28;20459;-66
2022/06/07 10:46:29;;;;;;;15.50;14.30;;;25.20;96.40;;;;;;5017406;28;20901;-66
2022/06/07 10:49:12;;;;;;;14.93;14.13;;;24.20;97.30;;;;;;5016725;28;20461;-66
2022/06/07 10:54:41;;;;;;;15.47;14.57;;;24.10;98.40;;;;;;5016999;28;20615;-67
2022/06/07 10:57:16;;;;;;;15.07;14.37;;;23.80;99.60;;;;;;5017211;28;20508;-67
2022/06/07 10:59:45;;;;;;;15.40;14.53;;;24.40;99.60;;;;;;5034193;28;20465;-67
2022/06/07 11:02:22;;;;;;;14.73;13.90;;;24.50;98.70;;;;;;5040373;28;20571;-66
2022/06/07 11:10:35;;;;;;;14.40;13.60;;;24.40;99.10;;;;;;5037507;28;20575;-67
2022/06/07 11:13:16;;;;;;;14.40;13.70;;;24.50;99.10;;;;;;5037120;28;20811;-67
2022/06/07 11:15:51;;;;;;;14.40;13.43;;;24.60;99.40;;;;;;5037553;28;20709;-66
2022/06/07 11:18:22;;;;;;;14.80;13.90;;;24.00;99.10;;;;;;5034835;28;20486;-67
2022/06/07 11:20:51;;;;;;;15.33;14.30;;;23.70;99.90;;;;;;5036795;28;21016;-67
2022/06/07 11:23:29;;;;;;;16.00;14.90;;;23.50;99.90;;;;;;5036312;28;20460;-68
2022/06/07 11:26:02;;;;;;;16.37;15.10;;;23.40;99.90;;;;;;5036837;28;20970;-66
2022/06/07 11:28:33;;;;;;;16.23;14.80;;;23.30;99.90;;;;;;5036590;28;20452;-67
2022/06/07 11:31:03;;;;;;;15.40;14.40;;;23.30;99.90;;;;;;5036762;28;21138;-67
2022/06/07 11:33:43;;;;;;;15.10;14.23;;;23.40;99.90;;;;;;5037079;28;20458;-67
2022/06/07 11:36:34;;;;;;;14.70;13.80;;;23.30;99.90;;;;;;5037213;28;21726;-66
2022/06/07 11:39:27;;;;;;;15.30;14.13;;;23.10;99.90;;;;;;5036364;28;20981;-67
2022/06/07 11:41:56;;;;;;;15.13;14.00;;;22.60;99.90;;;;;;5029355;28;20467;-67
2022/06/07 11:44:35;;;;;;;15.33;14.40;;;22.20;99.90;;;;;;5036812;28;20465;-67
2022/06/07 11:47:22;;;;;;;15.97;15.07;;;22.10;99.90;;;;;;5035822;28;20469;-67
2022/06/07 11:50:01;;;;;;;14.90;14.03;;;21.60;99.90;;;;;;5035966;28;20598;-67
2022/06/07 11:52:30;;;;;;;15.43;14.13;;;21.50;99.90;;;;;;5036118;28;20460;-67
2022/06/07 11:55:06;;;;;;;14.60;13.90;;;21.30;99.90;;;;;;5035039;28;20526;-67
2022/06/07 11:57:36;;;;;;;14.80;13.70;;;20.80;99.90;;;;;;5029482;28;20473;-66
2022/06/07 12:00:38;;;;;;;14.27;13.57;;;21.10;99.90;;;;;;5031272;28;20464;-66
2022/06/07 12:03:29;;;;;;;13.63;12.90;;;20.90;99.90;;;;;;5013344;28;20482;-65
2022/06/07 12:06:05;;;;;;;15.70;14.60;;;20.90;99.90;;;;;;5033999;28;21056;-66
2022/06/07 12:08:51;;;;;;;15.27;14.00;;;20.40;99.90;;;;;;5034430;28;20973;-66
2022/06/07 12:11:23;;;;;;;14.70;13.90;;;20.30;99.90;;;;;;5034096;28;20997;-67
2022/06/07 12:13:59;;;;;;;15.00;13.97;;;20.00;99.90;;;;;;5034384;28;21069;-66
2022/06/07 12:16:32;;;;;;;14.60;13.70;;;20.20;99.90;;;;;;5034690;28;20491;-67
2022/06/07 12:19:02;;;;;;;14.83;13.93;;;20.30;99.90;;;;;;5034187;28;20912;-65
2022/06/07 12:21:32;;;;;;;15.47;14.47;;;20.50;99.90;;;;;;5035559;28;21078;-66
2022/06/07 12:24:04;;;;;;;15.67;14.67;;;20.80;99.90;;;;;;5031260;28;20463;-66
2022/06/07 12:26:34;;;;;;;15.30;14.50;;;21.00;99.90;;;;;;5034677;28;20988;-66
2022/06/07 12:29:11;;;;;;;16.03;15.13;;;21.00;99.90;;;;;;5037738;28;21822;-67
2022/06/07 12:31:45;;;;;;;15.37;14.37;;;21.20;99.90;;;;;;5039902;28;20471;-66
2022/06/07 12:34:18;;;;;;;20.83;19.40;;;21.00;99.90;;;;;;5037987;28;21033;-65
2022/06/07 12:36:50;;;;;;;26.43;24.30;;;20.70;99.90;;;;;;5038713;28;20496;-64
2022/06/07 12:39:18;;;;;;;26.90;24.80;;;19.90;99.90;;;;;;5038403;28;21064;-66
2022/06/07 12:41:52;;;;;;;28.03;25.80;;;19.10;99.90;;;;;;5038913;28;20474;-66
2022/06/07 12:44:25;;;;;;;29.03;26.73;;;18.60;99.90;;;;;;5039569;28;21118;-65
2022/06/07 12:46:53;;;;;;;29.17;26.90;;;18.10;99.90;;;;;;5039392;28;20957;-67
2022/06/07 12:49:22;;;;;;;27.63;25.47;;;17.70;99.90;;;;;;5038358;28;20467;-67
2022/06/07 12:51:58;;;;;;;27.07;25.07;;;17.60;99.90;;;;;;5038767;28;20490;-66
2022/06/07 12:54:26;;;;;;;26.97;24.97;;;17.90;99.90;;;;;;5039009;28;20471;-67
2022/06/07 12:56:56;;;;;;;26.70;24.50;;;18.20;99.90;;;;;;5038387;28;20494;-68
2022/06/07 12:59:29;;;;;;;23.57;21.60;;;18.30;99.90;;;;;;5053295;28;20477;-68
2022/06/07 13:01:56;;;;;;;22.27;20.47;;;18.80;99.90;;;;;;5056345;28;20470;-69
2022/06/07 13:04:32;;;;;;;20.03;18.33;;;18.90;99.90;;;;;;5043262;28;20522;-68
2022/06/07 13:07:02;;;;;;;18.30;16.90;;;19.00;99.90;;;;;;5037776;28;20469;-66
2022/06/07 13:09:30;;;;;;;19.20;17.50;;;19.00;99.90;;;;;;5037317;28;20964;-67
2022/06/07 13:11:59;;;;;;;17.03;15.73;;;19.30;99.90;;;;;;5037123;28;20947;-67
2022/06/07 13:14:26;;;;;;;16.40;14.60;;;19.50;99.90;;;;;;5034993;28;21183;-66